Hauptseite
METAR-TAF:

METAR-TAF

Flughäfen :

Queen Alia International Airport

Amman-Queen Alia, Jordanien

Breite: 31-40N, Länge: 035-58E, Höhe: 721 m

Beobachtung

Neuester Wetterbericht von vor 18 Minuten, um 07:00 UTC
Windstille
Temperatur 20°C
Luftfeuchtigkeit 46%
Luftdruck 1020 hPa
Sichtweite: 5000 m
trockener Dunst

METAR: OJAI 280700Z 00000KT 5000 HZ NSC 20/08 Q1020 NOSIG

Zeit: 10:18 (07:18 UTC)

Prognose

Neuester Wetterbericht von vor 2 Stunden und 18 Minuten, um 05:00 UTC
Gültige Prognose vom 28 um 06 UTC bis 29 um 12 UTC
Wind 10 kt aus West/Nordwest
Sichtweite: 5000 m
trockener Dunst
Wahrscheinlichkeit 30% :
Zeitweise
vom 28 um 12 UTC bis 28 um 18 UTC
Wind 17 kt aus West/Nordwest
Sichtweite: 4000 m
Staubtreiben

TAF: OJAI 280500Z 2806/2912 29010KT 5000 HZ NSC PROB30 TEMPO 2812/2818 30017KT 4000 BLDU

Wetterbeobachtungen und Prognosen von mehr als 4000 Flughäfen (METAR und TAF Bericht).

Die verfügbaren Stationen werden durch gelbe und rote Markierungen auf der Karte dargestellt.

Führen Sie die Maus auf sie, um den Namen der Station zu sehen.

Darauf klicken, um die Beobachtung von Wetterbeobachtungen und Prognosen zu sehen.

Um die Karte zu ändern : klicken Sie auf den grünen Tasten mit einem schwarzen Kreuz Zum Vergrößern, auf den grünen Button mit einem Gedankenstrich zu verkleinern, oder auf die grünen Pfeile für benachbarte Karten.


METAR-TAF: